sensor_id;sensor_type;location;lat;lon;timestamp;temperature;humidity
65559;DHT22;52203;51.998;5.140;2023-07-29T00:01:36;12.17;118.99
65559;DHT22;52203;51.998;5.140;2023-07-29T00:04:02;12.20;118.99
65559;DHT22;52203;51.998;5.140;2023-07-29T00:06:27;12.20;118.99
65559;DHT22;52203;51.998;5.140;2023-07-29T00:08:53;12.19;118.99
65559;DHT22;52203;51.998;5.140;2023-07-29T00:11:19;12.19;118.99
65559;DHT22;52203;51.998;5.140;2023-07-29T00:13:44;12.19;118.99
65559;DHT22;52203;51.998;5.140;2023-07-29T00:16:10;12.18;118.99
65559;DHT22;52203;51.998;5.140;2023-07-29T00:18:39;12.15;118.99
65559;DHT22;52203;51.998;5.140;2023-07-29T00:21:04;12.13;118.99
65559;DHT22;52203;51.998;5.140;2023-07-29T00:23:30;12.10;118.99
65559;DHT22;52203;51.998;5.140;2023-07-29T00:25:59;12.05;118.99
65559;DHT22;52203;51.998;5.140;2023-07-29T00:28:24;12.03;118.99
65559;DHT22;52203;51.998;5.140;2023-07-29T00:30:50;12.07;118.99
65559;DHT22;52203;51.998;5.140;2023-07-29T00:33:16;12.14;118.99
65559;DHT22;52203;51.998;5.140;2023-07-29T00:35:42;12.19;118.99
65559;DHT22;52203;51.998;5.140;2023-07-29T00:38:08;12.20;118.99
65559;DHT22;52203;51.998;5.140;2023-07-29T00:40:35;12.23;118.99
65559;DHT22;52203;51.998;5.140;2023-07-29T00:43:03;12.27;118.99
65559;DHT22;52203;51.998;5.140;2023-07-29T00:45:29;12.29;118.99
65559;DHT22;52203;51.998;5.140;2023-07-29T00:47:55;12.27;118.99
65559;DHT22;52203;51.998;5.140;2023-07-29T00:50:21;12.27;118.99
65559;DHT22;52203;51.998;5.140;2023-07-29T00:52:48;12.29;118.99
65559;DHT22;52203;51.998;5.140;2023-07-29T00:55:14;12.26;118.99
65559;DHT22;52203;51.998;5.140;2023-07-29T00:57:40;12.25;118.99
65559;DHT22;52203;51.998;5.140;2023-07-29T01:00:08;12.22;118.99
65559;DHT22;52203;51.998;5.140;2023-07-29T01:02:38;12.25;118.99
65559;DHT22;52203;51.998;5.140;2023-07-29T01:05:06;12.25;118.99
65559;DHT22;52203;51.998;5.140;2023-07-29T01:07:47;12.23;118.99
65559;DHT22;52203;51.998;5.140;2023-07-29T01:13:19;12.22;118.99
65559;DHT22;52203;51.998;5.140;2023-07-29T01:15:58;12.21;118.99
65559;DHT22;52203;51.998;5.140;2023-07-29T01:18:31;12.20;118.99
65559;DHT22;52203;51.998;5.140;2023-07-29T01:21:03;12.16;118.99
65559;DHT22;52203;51.998;5.140;2023-07-29T01:23:31;12.15;118.99
65559;DHT22;52203;51.998;5.140;2023-07-29T01:25:57;12.14;118.99
65559;DHT22;52203;51.998;5.140;2023-07-29T01:28:23;12.15;118.99
65559;DHT22;52203;51.998;5.140;2023-07-29T01:30:52;12.18;118.99
65559;DHT22;52203;51.998;5.140;2023-07-29T01:33:26;12.18;118.99
65559;DHT22;52203;51.998;5.140;2023-07-29T01:36:02;12.20;118.99
65559;DHT22;52203;51.998;5.140;2023-07-29T01:38:30;12.20;118.99
65559;DHT22;52203;51.998;5.140;2023-07-29T01:41:04;12.23;118.99
65559;DHT22;52203;51.998;5.140;2023-07-29T01:43:32;12.22;118.99
65559;DHT22;52203;51.998;5.140;2023-07-29T01:45:58;12.23;118.99
65559;DHT22;52203;51.998;5.140;2023-07-29T01:48:24;12.25;118.99
65559;DHT22;52203;51.998;5.140;2023-07-29T01:50:50;12.25;118.99
65559;DHT22;52203;51.998;5.140;2023-07-29T01:53:15;12.23;118.99
65559;DHT22;52203;51.998;5.140;2023-07-29T01:55:43;12.22;118.99
65559;DHT22;52203;51.998;5.140;2023-07-29T01:58:10;12.18;118.99
65559;DHT22;52203;51.998;5.140;2023-07-29T02:00:35;12.19;118.99
65559;DHT22;52203;51.998;5.140;2023-07-29T02:03:01;12.14;118.99
65559;DHT22;52203;51.998;5.140;2023-07-29T02:05:26;12.13;118.99
65559;DHT22;52203;51.998;5.140;2023-07-29T02:07:55;12.12;118.99
65559;DHT22;52203;51.998;5.140;2023-07-29T02:10:20;12.13;118.99
65559;DHT22;52203;51.998;5.140;2023-07-29T02:12:46;12.11;118.99
65559;DHT22;52203;51.998;5.140;2023-07-29T02:15:11;12.12;118.99
65559;DHT22;52203;51.998;5.140;2023-07-29T02:17:37;12.07;118.99
65559;DHT22;52203;51.998;5.140;2023-07-29T02:20:03;12.05;118.99
65559;DHT22;52203;51.998;5.140;2023-07-29T02:22:29;11.96;118.99
65559;DHT22;52203;51.998;5.140;2023-07-29T02:24:55;11.94;118.99
65559;DHT22;52203;51.998;5.140;2023-07-29T02:27:20;11.92;118.99
65559;DHT22;52203;51.998;5.140;2023-07-29T02:29:46;11.88;118.99
65559;DHT22;52203;51.998;5.140;2023-07-29T02:32:12;11.85;118.99
65559;DHT22;52203;51.998;5.140;2023-07-29T02:34:37;11.82;118.99
65559;DHT22;52203;51.998;5.140;2023-07-29T02:37:03;11.79;118.99
65559;DHT22;52203;51.998;5.140;2023-07-29T02:39:28;11.79;118.99
65559;DHT22;52203;51.998;5.140;2023-07-29T02:42:00;11.76;118.99
65559;DHT22;52203;51.998;5.140;2023-07-29T02:44:28;11.74;118.99
65559;DHT22;52203;51.998;5.140;2023-07-29T02:46:57;11.73;118.99
65559;DHT22;52203;51.998;5.140;2023-07-29T02:49:23;11.71;118.99
65559;DHT22;52203;51.998;5.140;2023-07-29T02:51:49;11.69;118.99
65559;DHT22;52203;51.998;5.140;2023-07-29T02:54:14;11.69;118.99
65559;DHT22;52203;51.998;5.140;2023-07-29T02:56:40;11.67;118.99
65559;DHT22;52203;51.998;5.140;2023-07-29T02:59:05;11.66;118.99
65559;DHT22;52203;51.998;5.140;2023-07-29T03:01:31;11.63;118.99
65559;DHT22;52203;51.998;5.140;2023-07-29T03:03:57;11.62;118.99
65559;DHT22;52203;51.998;5.140;2023-07-29T03:06:24;11.61;118.99
65559;DHT22;52203;51.998;5.140;2023-07-29T03:08:49;11.63;118.99
65559;DHT22;52203;51.998;5.140;2023-07-29T03:11:16;11.61;118.99
65559;DHT22;52203;51.998;5.140;2023-07-29T03:13:42;11.64;118.99
65559;DHT22;52203;51.998;5.140;2023-07-29T03:16:13;11.64;118.99
65559;DHT22;52203;51.998;5.140;2023-07-29T03:18:40;11.66;118.99
65559;DHT22;52203;51.998;5.140;2023-07-29T03:21:07;11.66;118.99
65559;DHT22;52203;51.998;5.140;2023-07-29T03:23:33;11.64;118.99
65559;DHT22;52203;51.998;5.140;2023-07-29T03:26:00;11.61;118.99
65559;DHT22;52203;51.998;5.140;2023-07-29T03:28:32;11.61;118.99
65559;DHT22;52203;51.998;5.140;2023-07-29T03:30:58;11.60;118.99
65559;DHT22;52203;51.998;5.140;2023-07-29T03:33:25;11.58;118.99
65559;DHT22;52203;51.998;5.140;2023-07-29T03:35:52;11.57;118.99
65559;DHT22;52203;51.998;5.140;2023-07-29T03:38:18;11.59;118.99
65559;DHT22;52203;51.998;5.140;2023-07-29T03:40:43;11.61;118.99
65559;DHT22;52203;51.998;5.140;2023-07-29T03:43:12;11.61;118.99
65559;DHT22;52203;51.998;5.140;2023-07-29T03:45:42;11.62;118.99
65559;DHT22;52203;51.998;5.140;2023-07-29T03:48:10;11.61;118.99
65559;DHT22;52203;51.998;5.140;2023-07-29T03:50:39;11.59;118.99
65559;DHT22;52203;51.998;5.140;2023-07-29T03:53:05;11.60;118.99
65559;DHT22;52203;51.998;5.140;2023-07-29T03:55:31;11.61;118.99
65559;DHT22;52203;51.998;5.140;2023-07-29T03:57:58;11.61;118.99
65559;DHT22;52203;51.998;5.140;2023-07-29T04:00:24;11.61;118.99
65559;DHT22;52203;51.998;5.140;2023-07-29T04:02:49;11.61;118.99
65559;DHT22;52203;51.998;5.140;2023-07-29T04:05:15;11.62;118.99
65559;DHT22;52203;51.998;5.140;2023-07-29T04:07:41;11.62;118.99
65559;DHT22;52203;51.998;5.140;2023-07-29T04:10:07;11.62;118.99
65559;DHT22;52203;51.998;5.140;2023-07-29T04:12:33;11.63;118.99
65559;DHT22;52203;51.998;5.140;2023-07-29T04:14:59;11.63;118.99
65559;DHT22;52203;51.998;5.140;2023-07-29T04:17:24;11.62;118.99
65559;DHT22;52203;51.998;5.140;2023-07-29T04:19:50;11.63;118.99
65559;DHT22;52203;51.998;5.140;2023-07-29T04:22:16;11.62;118.99
65559;DHT22;52203;51.998;5.140;2023-07-29T04:24:42;11.59;118.99
65559;DHT22;52203;51.998;5.140;2023-07-29T04:27:07;11.58;118.99
65559;DHT22;52203;51.998;5.140;2023-07-29T04:29:33;11.56;118.99
65559;DHT22;52203;51.998;5.140;2023-07-29T04:32:01;11.56;118.99
65559;DHT22;52203;51.998;5.140;2023-07-29T04:34:27;11.55;118.99
65559;DHT22;52203;51.998;5.140;2023-07-29T04:36:52;11.54;118.99
65559;DHT22;52203;51.998;5.140;2023-07-29T04:39:18;11.53;118.99
65559;DHT22;52203;51.998;5.140;2023-07-29T04:41:43;11.53;118.99
65559;DHT22;52203;51.998;5.140;2023-07-29T04:44:09;11.54;118.99
65559;DHT22;52203;51.998;5.140;2023-07-29T04:46:36;11.54;118.99
65559;DHT22;52203;51.998;5.140;2023-07-29T04:49:02;11.54;118.99
65559;DHT22;52203;51.998;5.140;2023-07-29T04:51:28;11.55;118.99
65559;DHT22;52203;51.998;5.140;2023-07-29T04:53:53;11.57;118.99
65559;DHT22;52203;51.998;5.140;2023-07-29T04:56:19;11.59;118.99
65559;DHT22;52203;51.998;5.140;2023-07-29T04:58:45;11.60;118.99
65559;DHT22;52203;51.998;5.140;2023-07-29T05:01:11;11.64;118.99
65559;DHT22;52203;51.998;5.140;2023-07-29T05:03:36;11.67;118.99
65559;DHT22;52203;51.998;5.140;2023-07-29T05:06:02;11.71;118.99
65559;DHT22;52203;51.998;5.140;2023-07-29T05:08:28;11.72;118.99
65559;DHT22;52203;51.998;5.140;2023-07-29T05:10:54;11.73;118.99
65559;DHT22;52203;51.998;5.140;2023-07-29T05:13:20;11.77;118.99
65559;DHT22;52203;51.998;5.140;2023-07-29T05:15:49;11.82;118.99
65559;DHT22;52203;51.998;5.140;2023-07-29T05:18:16;11.85;118.99
65559;DHT22;52203;51.998;5.140;2023-07-29T05:20:42;11.89;118.99
65559;DHT22;52203;51.998;5.140;2023-07-29T05:23:07;11.93;118.99
65559;DHT22;52203;51.998;5.140;2023-07-29T05:25:33;11.93;118.99
65559;DHT22;52203;51.998;5.140;2023-07-29T05:28:03;11.99;118.99
65559;DHT22;52203;51.998;5.140;2023-07-29T05:30:29;12.02;118.99
65559;DHT22;52203;51.998;5.140;2023-07-29T05:33:00;12.06;118.99
65559;DHT22;52203;51.998;5.140;2023-07-29T05:35:26;12.12;118.99
65559;DHT22;52203;51.998;5.140;2023-07-29T05:37:51;12.16;118.99
65559;DHT22;52203;51.998;5.140;2023-07-29T05:40:17;12.19;118.99
65559;DHT22;52203;51.998;5.140;2023-07-29T05:42:43;12.23;118.99
65559;DHT22;52203;51.998;5.140;2023-07-29T05:45:10;12.28;118.99
65559;DHT22;52203;51.998;5.140;2023-07-29T05:47:36;12.33;118.99
65559;DHT22;52203;51.998;5.140;2023-07-29T05:50:02;12.41;118.99
65559;DHT22;52203;51.998;5.140;2023-07-29T05:52:30;12.48;118.99
65559;DHT22;52203;51.998;5.140;2023-07-29T05:54:59;12.56;118.99
65559;DHT22;52203;51.998;5.140;2023-07-29T05:57:24;12.65;118.99
65559;DHT22;52203;51.998;5.140;2023-07-29T05:59:50;12.78;118.99
65559;DHT22;52203;51.998;5.140;2023-07-29T06:02:16;12.95;118.99
65559;DHT22;52203;51.998;5.140;2023-07-29T06:04:41;13.16;118.99
65559;DHT22;52203;51.998;5.140;2023-07-29T06:07:07;13.29;118.99
65559;DHT22;52203;51.998;5.140;2023-07-29T06:09:32;13.68;118.99
65559;DHT22;52203;51.998;5.140;2023-07-29T06:11:58;13.88;118.99
65559;DHT22;52203;51.998;5.140;2023-07-29T06:14:24;13.82;118.99
65559;DHT22;52203;51.998;5.140;2023-07-29T06:16:49;13.82;118.99
65559;DHT22;52203;51.998;5.140;2023-07-29T06:19:15;13.71;118.99
65559;DHT22;52203;51.998;5.140;2023-07-29T06:21:40;13.66;118.99
65559;DHT22;52203;51.998;5.140;2023-07-29T06:24:06;13.67;118.99
65559;DHT22;52203;51.998;5.140;2023-07-29T06:26:31;13.65;118.99
65559;DHT22;52203;51.998;5.140;2023-07-29T06:28:57;13.66;118.99
65559;DHT22;52203;51.998;5.140;2023-07-29T06:31:22;13.71;118.99
65559;DHT22;52203;51.998;5.140;2023-07-29T06:33:48;13.73;118.99
65559;DHT22;52203;51.998;5.140;2023-07-29T06:36:13;13.80;118.99
65559;DHT22;52203;51.998;5.140;2023-07-29T06:38:39;13.82;118.99
65559;DHT22;52203;51.998;5.140;2023-07-29T06:41:06;13.82;118.99
65559;DHT22;52203;51.998;5.140;2023-07-29T06:43:31;13.83;118.99
65559;DHT22;52203;51.998;5.140;2023-07-29T06:45:57;13.83;118.99
65559;DHT22;52203;51.998;5.140;2023-07-29T06:48:22;13.78;118.99
65559;DHT22;52203;51.998;5.140;2023-07-29T06:50:49;13.76;118.99
65559;DHT22;52203;51.998;5.140;2023-07-29T06:53:15;13.73;118.99
65559;DHT22;52203;51.998;5.140;2023-07-29T06:55:42;13.69;118.99
65559;DHT22;52203;51.998;5.140;2023-07-29T06:58:07;13.69;118.99
65559;DHT22;52203;51.998;5.140;2023-07-29T07:00:33;13.75;118.99
65559;DHT22;52203;51.998;5.140;2023-07-29T07:02:58;13.78;118.99
65559;DHT22;52203;51.998;5.140;2023-07-29T07:05:27;13.81;118.99
65559;DHT22;52203;51.998;5.140;2023-07-29T07:07:53;13.85;118.99
65559;DHT22;52203;51.998;5.140;2023-07-29T07:10:19;13.91;118.99
65559;DHT22;52203;51.998;5.140;2023-07-29T07:12:45;13.96;118.99
65559;DHT22;52203;51.998;5.140;2023-07-29T07:15:10;13.98;118.99
65559;DHT22;52203;51.998;5.140;2023-07-29T07:17:36;13.98;118.99
65559;DHT22;52203;51.998;5.140;2023-07-29T07:20:01;14.04;118.99
65559;DHT22;52203;51.998;5.140;2023-07-29T07:22:27;14.11;118.99
65559;DHT22;52203;51.998;5.140;2023-07-29T07:24:52;14.15;118.99
65559;DHT22;52203;51.998;5.140;2023-07-29T07:27:18;14.21;118.99
65559;DHT22;52203;51.998;5.140;2023-07-29T07:29:44;14.21;118.99
65559;DHT22;52203;51.998;5.140;2023-07-29T07:32:09;14.20;118.99
65559;DHT22;52203;51.998;5.140;2023-07-29T07:34:35;14.18;118.99
65559;DHT22;52203;51.998;5.140;2023-07-29T07:37:00;14.12;118.99
65559;DHT22;52203;51.998;5.140;2023-07-29T07:39:26;14.23;118.99
65559;DHT22;52203;51.998;5.140;2023-07-29T07:41:51;15.91;118.99
65559;DHT22;52203;51.998;5.140;2023-07-29T07:44:18;16.07;118.99
65559;DHT22;52203;51.998;5.140;2023-07-29T07:46:45;16.18;118.99
65559;DHT22;52203;51.998;5.140;2023-07-29T07:49:11;16.51;118.99
65559;DHT22;52203;51.998;5.140;2023-07-29T07:51:38;16.85;118.99
65559;DHT22;52203;51.998;5.140;2023-07-29T07:54:03;17.07;118.99
65559;DHT22;52203;51.998;5.140;2023-07-29T07:56:29;17.38;118.99
65559;DHT22;52203;51.998;5.140;2023-07-29T07:58:54;17.65;118.99
65559;DHT22;52203;51.998;5.140;2023-07-29T08:01:19;17.54;118.99
65559;DHT22;52203;51.998;5.140;2023-07-29T08:03:45;17.32;118.99
65559;DHT22;52203;51.998;5.140;2023-07-29T08:06:10;17.22;118.99
65559;DHT22;52203;51.998;5.140;2023-07-29T08:08:36;16.86;118.99
65559;DHT22;52203;51.998;5.140;2023-07-29T08:11:01;16.70;118.99
65559;DHT22;52203;51.998;5.140;2023-07-29T08:13:27;16.71;118.99
65559;DHT22;52203;51.998;5.140;2023-07-29T08:15:53;16.75;118.99
65559;DHT22;52203;51.998;5.140;2023-07-29T08:18:19;16.71;118.99
65559;DHT22;52203;51.998;5.140;2023-07-29T08:20:55;16.69;118.99
65559;DHT22;52203;51.998;5.140;2023-07-29T08:23:21;16.56;118.99
65559;DHT22;52203;51.998;5.140;2023-07-29T08:26:04;16.46;118.99
65559;DHT22;52203;51.998;5.140;2023-07-29T08:28:36;16.33;118.99
65559;DHT22;52203;51.998;5.140;2023-07-29T08:31:02;16.30;118.99
65559;DHT22;52203;51.998;5.140;2023-07-29T08:33:28;16.21;118.99
65559;DHT22;52203;51.998;5.140;2023-07-29T08:35:54;16.18;118.99
65559;DHT22;52203;51.998;5.140;2023-07-29T08:38:20;16.35;118.99
65559;DHT22;52203;51.998;5.140;2023-07-29T08:41:10;16.72;118.99
65559;DHT22;52203;51.998;5.140;2023-07-29T08:43:39;17.05;118.99
65559;DHT22;52203;51.998;5.140;2023-07-29T08:46:04;17.29;118.99
65559;DHT22;52203;51.998;5.140;2023-07-29T08:48:42;17.46;118.99
65559;DHT22;52203;51.998;5.140;2023-07-29T08:51:11;17.47;118.99
65559;DHT22;52203;51.998;5.140;2023-07-29T08:53:38;17.55;118.99
65559;DHT22;52203;51.998;5.140;2023-07-29T08:56:04;17.54;118.99
65559;DHT22;52203;51.998;5.140;2023-07-29T08:58:31;17.59;118.99
65559;DHT22;52203;51.998;5.140;2023-07-29T09:00:56;17.69;118.99
65559;DHT22;52203;51.998;5.140;2023-07-29T09:03:22;17.74;118.99
65559;DHT22;52203;51.998;5.140;2023-07-29T09:05:48;17.69;118.99
65559;DHT22;52203;51.998;5.140;2023-07-29T09:08:14;17.55;118.99
65559;DHT22;52203;51.998;5.140;2023-07-29T09:10:39;17.63;118.99
65559;DHT22;52203;51.998;5.140;2023-07-29T09:13:05;17.55;118.99
65559;DHT22;52203;51.998;5.140;2023-07-29T09:15:33;17.59;118.99
65559;DHT22;52203;51.998;5.140;2023-07-29T09:17:59;17.51;118.99
65559;DHT22;52203;51.998;5.140;2023-07-29T09:20:26;17.45;118.99
65559;DHT22;52203;51.998;5.140;2023-07-29T09:23:01;17.40;118.99
65559;DHT22;52203;51.998;5.140;2023-07-29T09:25:30;17.34;118.99
65559;DHT22;52203;51.998;5.140;2023-07-29T09:27:59;17.46;118.99
65559;DHT22;52203;51.998;5.140;2023-07-29T09:30:26;17.66;118.99
65559;DHT22;52203;51.998;5.140;2023-07-29T09:32:56;17.96;118.99
65559;DHT22;52203;51.998;5.140;2023-07-29T09:35:22;17.99;118.99
65559;DHT22;52203;51.998;5.140;2023-07-29T09:37:48;18.03;118.99
65559;DHT22;52203;51.998;5.140;2023-07-29T09:40:15;17.97;118.99
65559;DHT22;52203;51.998;5.140;2023-07-29T09:42:48;18.05;118.99
65559;DHT22;52203;51.998;5.140;2023-07-29T09:45:22;18.18;118.99
65559;DHT22;52203;51.998;5.140;2023-07-29T09:47:48;18.14;118.99
65559;DHT22;52203;51.998;5.140;2023-07-29T09:50:14;18.11;118.99
65559;DHT22;52203;51.998;5.140;2023-07-29T09:52:39;17.99;118.99
65559;DHT22;52203;51.998;5.140;2023-07-29T09:55:07;18.03;118.99
65559;DHT22;52203;51.998;5.140;2023-07-29T09:57:33;17.82;118.99
65559;DHT22;52203;51.998;5.140;2023-07-29T09:59:59;17.88;118.99
65559;DHT22;52203;51.998;5.140;2023-07-29T10:02:24;18.02;118.99
65559;DHT22;52203;51.998;5.140;2023-07-29T10:04:54;18.21;118.99
65559;DHT22;52203;51.998;5.140;2023-07-29T10:07:20;18.19;118.99
65559;DHT22;52203;51.998;5.140;2023-07-29T10:09:46;18.12;118.99
65559;DHT22;52203;51.998;5.140;2023-07-29T10:12:13;18.05;118.99
65559;DHT22;52203;51.998;5.140;2023-07-29T10:14:38;18.09;118.99
65559;DHT22;52203;51.998;5.140;2023-07-29T10:17:05;18.12;118.99
65559;DHT22;52203;51.998;5.140;2023-07-29T10:19:31;18.05;118.99
65559;DHT22;52203;51.998;5.140;2023-07-29T10:22:01;17.90;118.99
65559;DHT22;52203;51.998;5.140;2023-07-29T10:24:30;17.74;118.99
65559;DHT22;52203;51.998;5.140;2023-07-29T10:26:59;17.46;118.99
65559;DHT22;52203;51.998;5.140;2023-07-29T10:29:29;17.25;118.99
65559;DHT22;52203;51.998;5.140;2023-07-29T10:31:57;16.78;118.99
65559;DHT22;52203;51.998;5.140;2023-07-29T10:34:24;16.31;118.99
65559;DHT22;52203;51.998;5.140;2023-07-29T10:36:50;15.98;118.99
65559;DHT22;52203;51.998;5.140;2023-07-29T10:39:17;15.83;118.99
65559;DHT22;52203;51.998;5.140;2023-07-29T10:42:02;15.77;118.99
65559;DHT22;52203;51.998;5.140;2023-07-29T10:47:14;15.65;118.99
65559;DHT22;52203;51.998;5.140;2023-07-29T10:49:48;15.58;118.99
65559;DHT22;52203;51.998;5.140;2023-07-29T10:52:15;15.57;118.99
65559;DHT22;52203;51.998;5.140;2023-07-29T10:54:47;15.51;118.99
65559;DHT22;52203;51.998;5.140;2023-07-29T10:57:14;15.48;118.99
65559;DHT22;52203;51.998;5.140;2023-07-29T10:59:41;15.36;118.99
65559;DHT22;52203;51.998;5.140;2023-07-29T11:02:18;15.25;118.99
65559;DHT22;52203;51.998;5.140;2023-07-29T11:04:51;15.23;118.99
65559;DHT22;52203;51.998;5.140;2023-07-29T11:12:33;15.12;118.99
65559;DHT22;52203;51.998;5.140;2023-07-29T11:17:34;14.88;118.99
65559;DHT22;52203;51.998;5.140;2023-07-29T11:20:01;14.75;118.99
65559;DHT22;52203;51.998;5.140;2023-07-29T11:22:30;14.69;118.99
65559;DHT22;52203;51.998;5.140;2023-07-29T11:24:56;14.57;118.99
65559;DHT22;52203;51.998;5.140;2023-07-29T11:27:22;14.44;118.99
65559;DHT22;52203;51.998;5.140;2023-07-29T11:29:48;14.32;118.99
65559;DHT22;52203;51.998;5.140;2023-07-29T11:32:14;14.27;118.99
65559;DHT22;52203;51.998;5.140;2023-07-29T11:34:41;14.27;118.99
65559;DHT22;52203;51.998;5.140;2023-07-29T11:37:08;14.27;118.99
65559;DHT22;52203;51.998;5.140;2023-07-29T11:39:39;15.11;118.99
65559;DHT22;52203;51.998;5.140;2023-07-29T11:42:05;15.00;118.99
65559;DHT22;52203;51.998;5.140;2023-07-29T11:44:31;15.13;118.99
65559;DHT22;52203;51.998;5.140;2023-07-29T11:46:56;15.23;118.99
65559;DHT22;52203;51.998;5.140;2023-07-29T11:49:22;15.30;118.99
65559;DHT22;52203;51.998;5.140;2023-07-29T11:51:47;15.44;118.99
65559;DHT22;52203;51.998;5.140;2023-07-29T11:54:13;15.72;118.99
65559;DHT22;52203;51.998;5.140;2023-07-29T11:56:39;16.05;118.99
65559;DHT22;52203;51.998;5.140;2023-07-29T11:59:04;16.43;118.99
65559;DHT22;52203;51.998;5.140;2023-07-29T12:01:30;16.78;118.99
65559;DHT22;52203;51.998;5.140;2023-07-29T12:03:57;17.29;118.99
65559;DHT22;52203;51.998;5.140;2023-07-29T12:06:23;17.17;118.99
65559;DHT22;52203;51.998;5.140;2023-07-29T12:08:50;17.16;118.99
65559;DHT22;52203;51.998;5.140;2023-07-29T12:11:16;17.15;118.99
65559;DHT22;52203;51.998;5.140;2023-07-29T12:13:43;17.05;118.99
65559;DHT22;52203;51.998;5.140;2023-07-29T12:16:08;17.15;118.99
65559;DHT22;52203;51.998;5.140;2023-07-29T12:18:34;17.13;118.99
65559;DHT22;52203;51.998;5.140;2023-07-29T12:21:01;17.18;118.99
65559;DHT22;52203;51.998;5.140;2023-07-29T12:23:28;17.22;118.99
65559;DHT22;52203;51.998;5.140;2023-07-29T12:25:59;17.21;118.99
65559;DHT22;52203;51.998;5.140;2023-07-29T12:28:25;17.07;118.99
65559;DHT22;52203;51.998;5.140;2023-07-29T12:30:57;17.05;118.99
65559;DHT22;52203;51.998;5.140;2023-07-29T12:33:36;17.07;118.99
65559;DHT22;52203;51.998;5.140;2023-07-29T12:36:07;17.06;118.99
65559;DHT22;52203;51.998;5.140;2023-07-29T12:38:33;17.18;118.99
65559;DHT22;52203;51.998;5.140;2023-07-29T12:40:59;17.18;118.99
65559;DHT22;52203;51.998;5.140;2023-07-29T12:43:25;17.33;118.99
65559;DHT22;52203;51.998;5.140;2023-07-29T12:45:51;18.62;118.99
65559;DHT22;52203;51.998;5.140;2023-07-29T12:48:16;19.31;118.99
65559;DHT22;52203;51.998;5.140;2023-07-29T12:50:42;18.28;118.99
65559;DHT22;52203;51.998;5.140;2023-07-29T12:53:08;18.44;118.99
65559;DHT22;52203;51.998;5.140;2023-07-29T12:55:37;18.41;118.99
65559;DHT22;52203;51.998;5.140;2023-07-29T12:58:03;18.25;118.99
65559;DHT22;52203;51.998;5.140;2023-07-29T13:00:29;18.35;118.99
65559;DHT22;52203;51.998;5.140;2023-07-29T13:02:54;18.51;118.99
65559;DHT22;52203;51.998;5.140;2023-07-29T13:05:20;18.71;118.99
65559;DHT22;52203;51.998;5.140;2023-07-29T13:07:45;18.98;118.99
65559;DHT22;52203;51.998;5.140;2023-07-29T13:10:11;19.08;118.99
65559;DHT22;52203;51.998;5.140;2023-07-29T13:12:38;19.28;118.99
65559;DHT22;52203;51.998;5.140;2023-07-29T13:15:04;19.39;118.99
65559;DHT22;52203;51.998;5.140;2023-07-29T13:17:30;19.24;118.99
65559;DHT22;52203;51.998;5.140;2023-07-29T13:19:56;19.30;118.99
65559;DHT22;52203;51.998;5.140;2023-07-29T13:22:21;19.30;118.99
65559;DHT22;52203;51.998;5.140;2023-07-29T13:24:47;19.30;118.99
65559;DHT22;52203;51.998;5.140;2023-07-29T13:27:12;19.20;118.99
65559;DHT22;52203;51.998;5.140;2023-07-29T13:29:39;19.21;118.99
65559;DHT22;52203;51.998;5.140;2023-07-29T13:32:05;19.14;118.99
65559;DHT22;52203;51.998;5.140;2023-07-29T13:34:31;19.12;118.99
65559;DHT22;52203;51.998;5.140;2023-07-29T13:36:56;19.16;118.99
65559;DHT22;52203;51.998;5.140;2023-07-29T13:39:22;19.27;118.99
65559;DHT22;52203;51.998;5.140;2023-07-29T13:41:47;19.20;118.99
65559;DHT22;52203;51.998;5.140;2023-07-29T13:44:13;19.28;118.99
65559;DHT22;52203;51.998;5.140;2023-07-29T13:46:38;19.41;118.99
65559;DHT22;52203;51.998;5.140;2023-07-29T13:49:04;19.43;118.99
65559;DHT22;52203;51.998;5.140;2023-07-29T13:51:29;19.27;118.99
65559;DHT22;52203;51.998;5.140;2023-07-29T13:53:55;19.21;118.99
65559;DHT22;52203;51.998;5.140;2023-07-29T13:56:22;19.16;118.99
65559;DHT22;52203;51.998;5.140;2023-07-29T13:58:47;19.18;118.99
65559;DHT22;52203;51.998;5.140;2023-07-29T14:01:12;19.24;118.99
65559;DHT22;52203;51.998;5.140;2023-07-29T14:03:38;19.26;118.99
65559;DHT22;52203;51.998;5.140;2023-07-29T14:06:03;19.30;118.99
65559;DHT22;52203;51.998;5.140;2023-07-29T14:08:29;19.25;118.99
65559;DHT22;52203;51.998;5.140;2023-07-29T14:10:54;19.23;118.99
65559;DHT22;52203;51.998;5.140;2023-07-29T14:13:20;19.03;118.99
65559;DHT22;52203;51.998;5.140;2023-07-29T14:15:45;18.94;118.99
65559;DHT22;52203;51.998;5.140;2023-07-29T14:18:11;18.92;118.99
65559;DHT22;52203;51.998;5.140;2023-07-29T14:20:36;18.94;118.99
65559;DHT22;52203;51.998;5.140;2023-07-29T14:23:02;18.88;118.99
65559;DHT22;52203;51.998;5.140;2023-07-29T14:25:27;18.84;118.99
65559;DHT22;52203;51.998;5.140;2023-07-29T14:27:53;18.92;118.99
65559;DHT22;52203;51.998;5.140;2023-07-29T14:30:18;18.97;118.99
65559;DHT22;52203;51.998;5.140;2023-07-29T14:32:44;18.95;118.99
65559;DHT22;52203;51.998;5.140;2023-07-29T14:35:09;18.76;118.99
65559;DHT22;52203;51.998;5.140;2023-07-29T14:37:35;18.61;118.99
65559;DHT22;52203;51.998;5.140;2023-07-29T14:40:01;18.48;118.99
65559;DHT22;52203;51.998;5.140;2023-07-29T14:42:28;18.24;118.99
65559;DHT22;52203;51.998;5.140;2023-07-29T14:44:54;18.24;118.99
65559;DHT22;52203;51.998;5.140;2023-07-29T14:47:19;18.20;118.99
65559;DHT22;52203;51.998;5.140;2023-07-29T14:49:45;18.22;118.99
65559;DHT22;52203;51.998;5.140;2023-07-29T14:52:11;18.12;118.99
65559;DHT22;52203;51.998;5.140;2023-07-29T14:54:36;18.21;118.99
65559;DHT22;52203;51.998;5.140;2023-07-29T14:57:02;18.24;118.99
65559;DHT22;52203;51.998;5.140;2023-07-29T14:59:27;18.30;118.99
65559;DHT22;52203;51.998;5.140;2023-07-29T15:01:53;18.30;118.99
65559;DHT22;52203;51.998;5.140;2023-07-29T15:04:19;18.34;118.99
65559;DHT22;52203;51.998;5.140;2023-07-29T15:06:44;18.43;118.99
65559;DHT22;52203;51.998;5.140;2023-07-29T15:09:10;18.46;118.99
65559;DHT22;52203;51.998;5.140;2023-07-29T15:11:35;18.40;118.99
65559;DHT22;52203;51.998;5.140;2023-07-29T15:14:02;18.22;118.99
65559;DHT22;52203;51.998;5.140;2023-07-29T15:16:31;18.04;118.99
65559;DHT22;52203;51.998;5.140;2023-07-29T15:18:57;17.98;118.99
65559;DHT22;52203;51.998;5.140;2023-07-29T15:21:22;17.81;118.99
65559;DHT22;52203;51.998;5.140;2023-07-29T15:23:48;17.58;118.99
65559;DHT22;52203;51.998;5.140;2023-07-29T15:26:13;16.98;118.99